createdAt,value
2022-09-14T00:02:11.979Z,17.82
2022-09-14T00:04:42.050Z,17.78
2022-09-14T00:07:11.740Z,17.73
2022-09-14T00:09:41.705Z,17.71
2022-09-14T00:12:11.360Z,17.72
2022-09-14T00:14:43.677Z,17.69
2022-09-14T00:17:13.536Z,17.65
2022-09-14T00:19:43.122Z,17.62
2022-09-14T00:22:12.812Z,17.59
2022-09-14T00:24:42.360Z,17.57
2022-09-14T00:27:11.920Z,17.61
2022-09-14T00:29:44.052Z,17.60
2022-09-14T00:32:13.625Z,17.59
2022-09-14T00:34:43.484Z,17.57
2022-09-14T00:37:14.356Z,17.57
2022-09-14T00:39:44.192Z,17.56
2022-09-14T00:42:19.518Z,17.55
2022-09-14T00:45:08.269Z,17.53
2022-09-14T00:47:38.257Z,17.53
2022-09-14T00:50:08.738Z,17.51
2022-09-14T00:52:40.566Z,17.48
2022-09-14T00:55:12.719Z,17.48
2022-09-14T00:57:45.453Z,17.46
2022-09-14T01:00:21.271Z,17.46
2022-09-14T01:02:50.862Z,17.44
2022-09-14T01:05:21.723Z,17.42
2022-09-14T01:08:21.458Z,17.39
2022-09-14T01:11:13.911Z,17.34
2022-09-14T01:13:50.497Z,17.33
2022-09-14T01:16:28.236Z,17.30
2022-09-14T01:19:00.154Z,17.28
2022-09-14T01:21:33.442Z,17.25
2022-09-14T01:24:10.129Z,17.23
2022-09-14T01:26:57.881Z,17.22
2022-09-14T01:29:32.918Z,17.19
2022-09-14T01:32:05.525Z,17.16
2022-09-14T01:34:37.322Z,17.15
2022-09-14T01:37:13.185Z,17.13
2022-09-14T01:39:47.005Z,17.13
2022-09-14T01:42:17.819Z,17.12
2022-09-14T01:44:58.349Z,17.11
2022-09-14T01:47:33.055Z,17.11
2022-09-14T01:50:06.169Z,17.09
2022-09-14T01:52:41.551Z,17.08
2022-09-14T01:55:14.388Z,17.09
2022-09-14T01:57:46.884Z,17.08
2022-09-14T02:00:23.055Z,17.09
2022-09-14T02:02:56.694Z,17.08
2022-09-14T02:05:31.661Z,17.03
2022-09-14T02:08:01.361Z,17.01
2022-09-14T02:10:31.482Z,17.01
2022-09-14T02:13:01.301Z,17.00
2022-09-14T02:15:33.643Z,17.00
2022-09-14T02:18:03.248Z,16.98
2022-09-14T02:20:40.792Z,16.94
2022-09-14T02:23:10.509Z,16.95
2022-09-14T02:25:41.117Z,16.94
2022-09-14T02:28:10.895Z,16.91
2022-09-14T02:30:48.762Z,16.88
2022-09-14T02:33:22.895Z,16.87
2022-09-14T02:35:55.748Z,16.85
2022-09-14T02:38:33.760Z,16.86
2022-09-14T02:41:07.644Z,16.85
2022-09-14T02:43:45.668Z,16.86
2022-09-14T02:46:23.302Z,16.81
2022-09-14T02:48:57.164Z,16.79
2022-09-14T02:51:31.164Z,16.77
2022-09-14T02:54:03.547Z,16.77
2022-09-14T02:56:33.453Z,16.74
2022-09-14T02:59:03.033Z,16.73
2022-09-14T03:01:35.222Z,16.73
2022-09-14T03:04:05.378Z,16.69
2022-09-14T03:06:34.946Z,16.68
2022-09-14T03:09:04.519Z,16.65
2022-09-14T03:11:34.268Z,16.64
2022-09-14T03:14:03.864Z,16.64
2022-09-14T03:16:36.058Z,16.61
2022-09-14T03:19:05.928Z,16.61
2022-09-14T03:21:35.838Z,16.59
2022-09-14T03:24:06.060Z,16.55
2022-09-14T03:26:36.910Z,16.55
2022-09-14T03:29:07.495Z,16.54
2022-09-14T03:31:39.697Z,16.52
2022-09-14T03:34:09.277Z,16.51
2022-09-14T03:36:38.894Z,16.49
2022-09-14T03:39:09.219Z,16.50
2022-09-14T03:41:39.059Z,16.47
2022-09-14T03:44:08.651Z,16.47
2022-09-14T03:46:41.156Z,16.42
2022-09-14T03:49:10.758Z,16.42
2022-09-14T03:51:40.397Z,16.39
2022-09-14T03:54:09.934Z,16.38
2022-09-14T03:56:39.469Z,16.37
2022-09-14T03:59:11.209Z,16.34
2022-09-14T04:01:43.617Z,16.34
2022-09-14T04:04:13.286Z,16.32
2022-09-14T04:06:42.815Z,16.30
2022-09-14T04:09:12.493Z,16.29
2022-09-14T04:11:42.036Z,16.27
2022-09-14T04:14:11.731Z,16.24
2022-09-14T04:16:44.787Z,16.24
2022-09-14T04:19:15.102Z,16.21
2022-09-14T04:21:45.828Z,16.21
2022-09-14T04:24:16.559Z,16.20
2022-09-14T04:26:47.241Z,16.20
2022-09-14T04:29:16.959Z,16.18
2022-09-14T04:31:49.175Z,16.17
2022-09-14T04:34:18.725Z,16.17
2022-09-14T04:36:48.260Z,16.15
2022-09-14T04:39:17.998Z,16.13
2022-09-14T04:41:47.574Z,16.10
2022-09-14T04:44:17.377Z,16.09
2022-09-14T04:46:49.620Z,16.07
2022-09-14T04:49:21.588Z,16.04
2022-09-14T04:51:51.373Z,15.99
2022-09-14T04:54:21.491Z,15.94
2022-09-14T04:56:51.104Z,15.90
2022-09-14T04:59:20.759Z,15.88
2022-09-14T05:01:52.975Z,15.87
2022-09-14T05:04:22.663Z,15.87
2022-09-14T05:06:52.873Z,15.85
2022-09-14T05:09:22.507Z,15.83
2022-09-14T05:11:52.879Z,15.80
2022-09-14T05:14:22.421Z,15.80
2022-09-14T05:16:56.479Z,15.78
2022-09-14T05:19:26.322Z,15.78
2022-09-14T05:21:56.136Z,15.78
2022-09-14T05:24:25.740Z,15.77
2022-09-14T05:26:59.934Z,15.75
2022-09-14T05:29:31.970Z,15.77
2022-09-14T05:32:04.605Z,15.76
2022-09-14T05:34:34.230Z,15.72
2022-09-14T05:37:03.741Z,15.72
2022-09-14T05:39:33.351Z,15.69
2022-09-14T05:42:02.905Z,15.68
2022-09-14T05:44:32.528Z,15.70
2022-09-14T05:47:04.717Z,15.68
2022-09-14T05:49:34.296Z,15.69
2022-09-14T05:52:04.042Z,15.66
2022-09-14T05:54:33.589Z,15.66
2022-09-14T05:57:03.133Z,15.64
2022-09-14T05:59:32.700Z,15.60
2022-09-14T06:02:04.897Z,15.56
2022-09-14T06:04:34.893Z,15.55
2022-09-14T06:07:17.917Z,15.53
2022-09-14T06:09:48.575Z,15.52
2022-09-14T06:12:18.719Z,15.55
2022-09-14T06:14:48.250Z,15.56
2022-09-14T06:17:20.774Z,15.55
2022-09-14T06:19:50.451Z,15.52
2022-09-14T06:22:20.368Z,15.52
2022-09-14T06:24:50.015Z,15.52
2022-09-14T06:27:19.552Z,15.51
2022-09-14T06:29:52.061Z,15.50
2022-09-14T06:32:25.209Z,15.47
2022-09-14T06:34:54.732Z,15.46
2022-09-14T06:37:24.313Z,15.48
2022-09-14T06:39:53.914Z,15.47
2022-09-14T06:42:23.572Z,15.44
2022-09-14T06:44:54.973Z,15.40
2022-09-14T06:47:27.250Z,15.35
2022-09-14T06:49:56.834Z,15.30
2022-09-14T06:52:29.432Z,15.29
2022-09-14T06:55:01.521Z,15.27
2022-09-14T06:57:31.244Z,15.28
2022-09-14T07:00:00.860Z,15.25
2022-09-14T07:02:33.046Z,15.25
2022-09-14T07:05:02.765Z,15.24
2022-09-14T07:07:32.326Z,15.19
2022-09-14T07:10:01.843Z,15.17
2022-09-14T07:12:31.359Z,15.15
2022-09-14T07:15:00.891Z,15.16
2022-09-14T07:17:33.257Z,15.17
2022-09-14T07:20:02.785Z,15.21
2022-09-14T07:22:35.877Z,15.22
2022-09-14T07:25:05.464Z,15.25
2022-09-14T07:27:37.655Z,15.24
2022-09-14T07:30:08.652Z,15.21
2022-09-14T07:32:40.826Z,15.16
2022-09-14T07:35:11.467Z,15.10
2022-09-14T07:37:41.078Z,15.06
2022-09-14T07:40:12.384Z,15.08
2022-09-14T07:42:42.015Z,15.05
2022-09-14T07:45:12.569Z,15.06
2022-09-14T07:47:44.774Z,15.05
2022-09-14T07:50:14.467Z,15.06
2022-09-14T07:52:44.068Z,15.07
2022-09-14T07:55:15.079Z,15.06
2022-09-14T07:57:56.090Z,15.06
2022-09-14T08:00:27.022Z,15.07
2022-09-14T08:02:59.375Z,15.10
2022-09-14T08:05:29.022Z,15.13
2022-09-14T08:07:59.054Z,15.09
2022-09-14T08:10:28.854Z,15.09
2022-09-14T08:12:58.974Z,15.05
2022-09-14T08:15:28.844Z,15.06
2022-09-14T08:18:01.011Z,15.05
2022-09-14T08:20:30.540Z,15.06
2022-09-14T08:23:01.892Z,15.05
2022-09-14T08:25:31.408Z,14.98
2022-09-14T08:28:01.154Z,15.02
2022-09-14T08:30:30.700Z,15.00
2022-09-14T08:33:02.778Z,15.02
2022-09-14T08:35:56.381Z,15.03
2022-09-14T08:38:24.665Z,15.00
2022-09-14T08:40:54.355Z,14.97
2022-09-14T08:43:25.719Z,14.96
2022-09-14T08:46:00.596Z,15.00
2022-09-14T08:48:37.462Z,15.03
2022-09-14T08:51:08.572Z,15.04
2022-09-14T08:53:42.446Z,15.04
2022-09-14T08:56:16.086Z,15.05
2022-09-14T08:58:55.596Z,15.10
2022-09-14T09:01:31.302Z,15.09
2022-09-14T09:04:17.404Z,15.06
2022-09-14T09:06:52.194Z,15.01
2022-09-14T09:09:26.953Z,15.03
2022-09-14T09:11:57.153Z,15.04
2022-09-14T09:14:29.771Z,15.01
2022-09-14T09:17:01.549Z,15.05
2022-09-14T09:19:37.744Z,15.09
2022-09-14T09:22:09.600Z,15.10
2022-09-14T09:24:42.424Z,15.08
2022-09-14T09:27:15.881Z,15.07
2022-09-14T09:29:45.953Z,15.00
2022-09-14T09:32:20.388Z,14.94
2022-09-14T09:35:01.726Z,14.96
2022-09-14T09:37:55.601Z,14.95
2022-09-14T09:40:30.349Z,14.93
2022-09-14T09:43:10.817Z,14.91
2022-09-14T09:45:51.768Z,14.90
2022-09-14T09:48:26.309Z,14.93
2022-09-14T09:51:06.372Z,14.95
2022-09-14T09:53:37.468Z,14.87
2022-09-14T09:56:09.456Z,14.83
2022-09-14T09:58:41.740Z,14.82
2022-09-14T10:01:23.420Z,14.81
2022-09-14T10:04:21.352Z,14.86
2022-09-14T10:06:55.905Z,14.82
2022-09-14T10:09:27.482Z,14.81
2022-09-14T10:12:01.506Z,14.87
2022-09-14T10:14:33.736Z,14.92
2022-09-14T10:17:11.250Z,14.88
2022-09-14T10:19:41.178Z,14.86
2022-09-14T10:22:26.511Z,14.83
2022-09-14T10:24:59.575Z,14.81
2022-09-14T10:27:39.815Z,14.82
2022-09-14T10:30:15.674Z,14.81
2022-09-14T10:32:50.070Z,14.81
2022-09-14T10:35:19.904Z,14.85
2022-09-14T10:38:18.187Z,14.83
2022-09-14T10:40:51.734Z,14.87
2022-09-14T10:43:27.480Z,14.90
2022-09-14T10:45:59.964Z,14.88
2022-09-14T10:49:01.276Z,14.90
2022-09-14T10:51:40.471Z,14.94
2022-09-14T10:54:21.632Z,14.88
2022-09-14T10:57:03.581Z,14.91
2022-09-14T10:59:36.955Z,14.88
2022-09-14T11:02:25.535Z,14.87
2022-09-14T11:05:04.233Z,14.86
2022-09-14T11:07:38.563Z,14.81
2022-09-14T11:10:19.620Z,14.80
2022-09-14T11:12:58.373Z,14.80
2022-09-14T11:15:31.682Z,14.78
2022-09-14T11:18:10.936Z,14.80
2022-09-14T11:20:46.486Z,14.76
2022-09-14T11:23:26.546Z,14.74
2022-09-14T11:26:00.875Z,14.70
2022-09-14T11:28:33.657Z,14.68
2022-09-14T11:31:06.553Z,14.67
2022-09-14T11:33:39.706Z,14.72
2022-09-14T11:36:12.817Z,14.72
2022-09-14T11:38:47.634Z,14.77
2022-09-14T11:41:25.881Z,14.85
2022-09-14T11:43:58.831Z,14.79
2022-09-14T11:46:34.419Z,14.79
2022-09-14T11:49:12.709Z,14.69
2022-09-14T11:51:45.745Z,14.70
2022-09-14T11:54:21.367Z,14.73
2022-09-14T11:56:59.433Z,14.77
2022-09-14T11:59:39.352Z,14.80
2022-09-14T12:02:56.502Z,14.79
2022-09-14T12:05:32.511Z,14.76
2022-09-14T12:08:21.197Z,14.74
2022-09-14T12:11:04.800Z,14.70
2022-09-14T12:13:37.535Z,14.73
2022-09-14T12:16:08.618Z,14.78
2022-09-14T12:18:39.754Z,14.85
2022-09-14T12:21:15.586Z,14.90
2022-09-14T12:23:48.176Z,14.88
2022-09-14T12:26:38.923Z,14.91
2022-09-14T12:29:34.134Z,14.90
2022-09-14T12:32:27.734Z,14.91
2022-09-14T12:35:27.451Z,14.96
2022-09-14T12:37:57.351Z,14.88
2022-09-14T12:40:36.597Z,14.90
2022-09-14T12:43:38.968Z,14.91
2022-09-14T12:46:13.444Z,14.95
2022-09-14T12:48:58.950Z,14.97
2022-09-14T12:51:37.507Z,15.02
2022-09-14T12:54:18.796Z,15.03
2022-09-14T12:56:56.235Z,15.04
2022-09-14T12:59:29.633Z,15.07
2022-09-14T13:02:06.049Z,15.05
2022-09-14T13:04:37.200Z,15.09
2022-09-14T13:07:10.309Z,15.09
2022-09-14T13:09:39.868Z,15.10
2022-09-14T13:12:12.236Z,15.11
2022-09-14T13:14:48.931Z,15.07
2022-09-14T13:17:22.948Z,15.10
2022-09-14T13:19:57.667Z,15.14
2022-09-14T13:22:29.388Z,15.13
2022-09-14T13:24:58.982Z,15.10
2022-09-14T13:27:31.152Z,15.10
2022-09-14T13:30:02.764Z,15.03
2022-09-14T13:32:37.420Z,15.02
2022-09-14T13:35:08.308Z,15.03
2022-09-14T13:37:44.101Z,15.07
2022-09-14T13:40:17.045Z,15.10
2022-09-14T13:42:46.780Z,15.15
2022-09-14T13:45:16.580Z,15.10
2022-09-14T13:47:48.965Z,15.10
2022-09-14T13:50:19.275Z,15.03
2022-09-14T13:53:04.674Z,15.07
2022-09-14T13:55:47.478Z,15.05
2022-09-14T13:58:23.038Z,15.05
2022-09-14T14:00:58.516Z,15.06
2022-09-14T14:03:40.409Z,15.06
2022-09-14T14:06:23.828Z,15.11
2022-09-14T14:09:11.674Z,15.16
2022-09-14T14:11:43.276Z,15.18
2022-09-14T14:14:21.516Z,15.24
2022-09-14T14:17:21.165Z,15.24
2022-09-14T14:19:55.021Z,15.28
2022-09-14T14:22:31.246Z,15.27
2022-09-14T14:25:16.589Z,15.27
2022-09-14T14:27:48.309Z,15.28
2022-09-14T14:30:19.902Z,15.33
2022-09-14T14:32:52.957Z,15.34
2022-09-14T14:35:27.057Z,15.37
2022-09-14T14:37:57.314Z,15.41
2022-09-14T14:40:29.014Z,15.38
2022-09-14T14:43:01.491Z,15.32
2022-09-14T14:45:35.412Z,15.31
2022-09-14T14:48:06.475Z,15.35
2022-09-14T14:50:38.683Z,15.38
2022-09-14T14:53:09.066Z,15.46
2022-09-14T14:55:38.669Z,15.44
2022-09-14T14:58:10.107Z,15.45
2022-09-14T15:00:40.407Z,15.48
2022-09-14T15:03:10.116Z,15.51
2022-09-14T15:05:45.826Z,15.59
2022-09-14T15:08:17.262Z,15.50
2022-09-14T15:10:46.879Z,15.53
2022-09-14T15:13:16.552Z,15.52
2022-09-14T15:15:46.306Z,15.56
2022-09-14T15:18:15.872Z,15.56
2022-09-14T15:20:48.086Z,15.57
2022-09-14T15:23:17.674Z,15.57
2022-09-14T15:25:47.262Z,15.49
2022-09-14T15:28:16.883Z,15.53
2022-09-14T15:30:46.520Z,15.54
2022-09-14T15:33:16.123Z,15.53
2022-09-14T15:35:48.523Z,15.56
2022-09-14T15:38:18.150Z,15.59
2022-09-14T15:40:48.120Z,15.63
2022-09-14T15:43:17.776Z,15.66
2022-09-14T15:45:47.394Z,15.68
2022-09-14T15:48:17.906Z,15.69
2022-09-14T15:50:51.020Z,15.72
2022-09-14T15:53:21.070Z,15.68
2022-09-14T15:55:50.644Z,15.73
2022-09-14T15:58:20.256Z,15.71
2022-09-14T16:00:50.311Z,15.77
2022-09-14T16:03:21.564Z,15.77
2022-09-14T16:05:53.710Z,15.76
2022-09-14T16:08:23.287Z,15.84
2022-09-14T16:11:00.165Z,15.82
2022-09-14T16:13:29.998Z,15.80
2022-09-14T16:16:06.238Z,15.81
2022-09-14T16:18:36.251Z,15.85
2022-09-14T16:21:17.459Z,15.85
2022-09-14T16:23:48.929Z,15.87
2022-09-14T16:26:20.350Z,15.84
2022-09-14T16:28:51.842Z,15.88
2022-09-14T16:31:23.192Z,15.91
2022-09-14T16:33:55.284Z,15.84
2022-09-14T16:36:29.060Z,15.81
2022-09-14T16:39:01.080Z,15.79
2022-09-14T16:41:32.248Z,15.79
2022-09-14T16:44:03.797Z,15.75
2022-09-14T16:46:34.832Z,15.76
2022-09-14T16:49:05.657Z,15.77
2022-09-14T16:51:38.282Z,15.75
2022-09-14T16:54:08.071Z,15.71
2022-09-14T16:56:39.278Z,15.71
2022-09-14T16:59:09.856Z,15.72
2022-09-14T17:01:41.129Z,15.63
2022-09-14T17:04:15.969Z,15.58
2022-09-14T17:06:52.951Z,15.59
2022-09-14T17:09:24.125Z,15.54
2022-09-14T17:11:54.165Z,15.54
2022-09-14T17:14:26.292Z,15.52
2022-09-14T17:16:56.332Z,15.51
2022-09-14T17:19:26.788Z,15.48
2022-09-14T17:22:03.844Z,15.50
2022-09-14T17:24:34.193Z,15.47
2022-09-14T17:27:04.003Z,15.46
2022-09-14T17:29:38.666Z,15.43
2022-09-14T17:32:14.071Z,15.47
2022-09-14T17:34:44.391Z,15.44
2022-09-14T17:37:16.569Z,15.42
2022-09-14T17:39:46.340Z,15.40
2022-09-14T17:42:15.914Z,15.39
2022-09-14T17:44:45.511Z,15.39
2022-09-14T17:47:15.139Z,15.34
2022-09-14T17:49:44.700Z,15.34
2022-09-14T17:52:16.875Z,15.30
2022-09-14T17:54:46.512Z,15.29
2022-09-14T17:57:16.132Z,15.28
2022-09-14T17:59:45.765Z,15.24
2022-09-14T18:02:15.322Z,15.35
2022-09-14T18:04:48.381Z,15.19
2022-09-14T18:07:20.816Z,15.16
2022-09-14T18:09:50.608Z,15.18
2022-09-14T18:12:20.435Z,15.18
2022-09-14T18:14:50.023Z,15.21
2022-09-14T18:17:20.756Z,15.17
2022-09-14T18:19:54.295Z,15.25
2022-09-14T18:22:26.459Z,15.18
2022-09-14T18:24:56.326Z,15.16
2022-09-14T18:27:25.988Z,15.14
2022-09-14T18:29:56.012Z,15.19
2022-09-14T18:32:25.811Z,15.11
2022-09-14T18:34:56.024Z,15.12
2022-09-14T18:37:28.190Z,15.07
2022-09-14T18:39:57.734Z,15.04
2022-09-14T18:42:27.308Z,15.05
2022-09-14T18:44:56.876Z,14.98
2022-09-14T18:47:26.483Z,14.95
2022-09-14T18:49:56.018Z,14.92
2022-09-14T18:52:28.185Z,14.91
2022-09-14T18:54:57.829Z,14.91
2022-09-14T18:57:27.969Z,14.91
2022-09-14T18:59:57.612Z,14.89
2022-09-14T19:02:27.335Z,14.99
2022-09-14T19:04:57.860Z,14.88
2022-09-14T19:07:30.050Z,14.88
2022-09-14T19:09:59.889Z,14.83
2022-09-14T19:12:29.453Z,14.77
2022-09-14T19:14:59.026Z,14.77
2022-09-14T19:17:28.659Z,14.79
2022-09-14T19:19:58.246Z,14.78
2022-09-14T19:22:31.033Z,14.86
2022-09-14T19:25:00.663Z,14.74
2022-09-14T19:27:30.759Z,14.71
2022-09-14T19:30:01.419Z,14.74
2022-09-14T19:32:30.948Z,14.75
2022-09-14T19:35:00.490Z,14.71
2022-09-14T19:37:35.084Z,14.75
2022-09-14T19:40:05.493Z,14.73
2022-09-14T19:42:36.184Z,14.71
2022-09-14T19:45:06.400Z,14.71
2022-09-14T19:47:35.986Z,14.77
2022-09-14T19:50:05.802Z,14.73
2022-09-14T19:52:38.096Z,14.66
2022-09-14T19:55:08.608Z,14.63
2022-09-14T19:57:38.360Z,14.53
2022-09-14T20:00:13.225Z,14.50
2022-09-14T20:02:44.850Z,14.53
2022-09-14T20:05:16.173Z,14.47
2022-09-14T20:07:50.721Z,14.47
2022-09-14T20:10:23.665Z,14.44
2022-09-14T20:12:53.399Z,14.43
2022-09-14T20:15:22.936Z,14.43
2022-09-14T20:17:56.861Z,14.41
2022-09-14T20:20:26.529Z,14.40
2022-09-14T20:22:58.783Z,14.38
2022-09-14T20:25:28.659Z,14.35
2022-09-14T20:27:58.638Z,14.32
2022-09-14T20:30:28.953Z,14.27
2022-09-14T20:32:58.563Z,14.29
2022-09-14T20:35:28.165Z,14.26
2022-09-14T20:38:00.374Z,14.21
2022-09-14T20:40:29.974Z,14.19
2022-09-14T20:42:59.704Z,14.20
2022-09-14T20:45:29.474Z,14.13
2022-09-14T20:47:59.419Z,14.11
2022-09-14T20:50:28.990Z,14.06
2022-09-14T20:53:01.239Z,14.05
2022-09-14T20:55:30.865Z,14.05
2022-09-14T20:58:00.425Z,14.07
2022-09-14T21:00:29.993Z,14.06
2022-09-14T21:02:59.622Z,14.06
2022-09-14T21:05:29.423Z,14.08
2022-09-14T21:08:01.696Z,14.10
2022-09-14T21:10:31.261Z,14.13
2022-09-14T21:13:00.889Z,14.16
2022-09-14T21:15:30.647Z,14.13
2022-09-14T21:18:00.799Z,14.14
2022-09-14T21:20:31.400Z,14.14
2022-09-14T21:23:03.586Z,14.10
2022-09-14T21:25:33.146Z,14.15
2022-09-14T21:28:02.807Z,14.14
2022-09-14T21:30:32.984Z,14.12
2022-09-14T21:33:02.540Z,14.09
2022-09-14T21:35:33.745Z,14.09
2022-09-14T21:38:06.745Z,14.08
2022-09-14T21:40:37.053Z,14.13
2022-09-14T21:43:06.737Z,14.03
2022-09-14T21:45:36.301Z,14.10
2022-09-14T21:48:05.994Z,14.07
2022-09-14T21:50:35.646Z,14.07
2022-09-14T21:53:07.970Z,14.20
2022-09-14T21:55:41.135Z,14.18
2022-09-14T21:58:10.913Z,14.15
2022-09-14T22:00:40.599Z,14.18
2022-09-14T22:03:10.147Z,14.16
2022-09-14T22:05:39.740Z,14.19
2022-09-14T22:08:12.636Z,14.17
2022-09-14T22:10:42.247Z,14.09
2022-09-14T22:13:11.945Z,14.10
2022-09-14T22:15:42.408Z,14.06
2022-09-14T22:18:12.069Z,14.06
2022-09-14T22:20:41.880Z,14.10
2022-09-14T22:23:14.053Z,14.05
2022-09-14T22:25:44.352Z,13.97
2022-09-14T22:28:14.009Z,13.94
2022-09-14T22:30:47.346Z,13.89
2022-09-14T22:33:16.945Z,13.87
2022-09-14T22:35:53.968Z,13.82
2022-09-14T22:38:27.675Z,13.82
2022-09-14T22:40:58.151Z,13.79
2022-09-14T22:43:28.980Z,13.80
2022-09-14T22:45:58.691Z,13.81
2022-09-14T22:48:28.522Z,13.81
2022-09-14T22:50:59.968Z,13.80
2022-09-14T22:53:33.014Z,13.80
2022-09-14T22:56:10.243Z,13.82
2022-09-14T22:58:41.195Z,13.81
2022-09-14T23:01:12.828Z,13.81
2022-09-14T23:03:42.433Z,13.80
2022-09-14T23:06:12.245Z,13.80
2022-09-14T23:08:44.380Z,13.80
2022-09-14T23:11:15.294Z,13.81
2022-09-14T23:13:45.491Z,13.81
2022-09-14T23:16:17.140Z,13.85
2022-09-14T23:18:47.477Z,13.87
2022-09-14T23:21:17.066Z,13.88
2022-09-14T23:23:53.485Z,13.83
2022-09-14T23:26:23.695Z,13.81
2022-09-14T23:28:54.890Z,13.84
2022-09-14T23:31:25.382Z,13.84
2022-09-14T23:33:56.264Z,13.84
2022-09-14T23:36:26.693Z,13.85
2022-09-14T23:38:59.195Z,13.83
2022-09-14T23:41:29.664Z,13.82
2022-09-14T23:43:59.217Z,13.81
2022-09-14T23:46:28.801Z,13.78
2022-09-14T23:48:58.529Z,13.77
2022-09-14T23:51:28.213Z,13.66
2022-09-14T23:54:00.414Z,13.67
2022-09-14T23:56:30.000Z,13.68
2022-09-14T23:58:59.557Z,13.68
